Аэропорт: Большое Савино. Пермь

ICAO: USPP

METAR:
2019-07-24 01:00:00
USPP 240100Z 31002MPS 9000 BKN014 16/16 Q1014 R21/110055 NOSIG RMK QFE749
METAR:
2019-07-23 23:43:00
TAF AMD USPP 232343Z 2400/2424 24003MPS 0300 FG VV001 TEMPO 2400/2403 1200 BR SCT004 FM240300 36003G09MPS 3100 BR BKN011 TEMPO 2403/2406 0500 FG SCT002 BECMG 2406/2407 9999 NSW BKN020CB TEMPO 2407/2415 -SHRA